TAF KDAY
KDAY 270531Z 2706/2806 21004KT P6SM BKN090 FM271000 17004KT P6SM BKN080 FM271700 19010G18KT P6SM BKN080 FM272200 20008KT P6SM VCSH BKN080 FM280300 23008KT P6SM SCT050 BKN080=
METAR KDAY
WC KDAY
WS KDAY
WV KDAY